RKTN/TAE METAR and TAF weather

Enter ICAO airport designator
Station Type Date Time Source
RKTN METAR 2020/04/06 17:00 UTC NOAA

RKTN 061700Z 31005KT CAVOK 10/M03 Q1017


Station Type Date Time Source
RKTN Decoded METAR 2020/04/06 17:00 UTC NOAA

Taegu Ab, Korea, South (RKTN) 35-54N 128-39E 37M
Apr 06, 2020 - 01:00 PM EDT / 2020.04.06 1700 UTC
Wind: from the NW (310 degrees) at 6 MPH (5 KT):0
Visibility: greater than 7 mile(s):0
Temperature: 50 F (10 C)
Dew Point: 26 F (-3 C)
Relative Humidity: 39%
Pressure (altimeter): 30.03 in. Hg (1017 hPa)
ob: RKTN 061700Z 31005KT CAVOK 10/M03 Q1017
cycle: 17

Station Type Date Time Source
RKTN TAF 2020/04/06 18:08 UTC NOAA

TAF RKTN 061700Z 0618/0724 30006KT 9999 FEW040 BKN200 TN04/0621Z TX22/0706Z

Example: see airport list